sensor_id;sensor_type;location;lat;lon;timestamp;temperature;humidity
3069;DHT22;1545;51.728;8.796;2024-03-02T00:00:02;6.80;96.50
3069;DHT22;1545;51.728;8.796;2024-03-02T00:02:39;6.80;96.70
3069;DHT22;1545;51.728;8.796;2024-03-02T00:05:06;6.70;96.70
3069;DHT22;1545;51.728;8.796;2024-03-02T00:07:31;6.70;96.80
3069;DHT22;1545;51.728;8.796;2024-03-02T00:09:57;6.70;96.90
3069;DHT22;1545;51.728;8.796;2024-03-02T00:12:23;6.70;97.00
3069;DHT22;1545;51.728;8.796;2024-03-02T00:14:48;6.70;96.90
3069;DHT22;1545;51.728;8.796;2024-03-02T00:17:24;6.70;97.00
3069;DHT22;1545;51.728;8.796;2024-03-02T00:19:50;6.70;97.00
3069;DHT22;1545;51.728;8.796;2024-03-02T00:22:15;6.60;97.10
3069;DHT22;1545;51.728;8.796;2024-03-02T00:24:41;6.60;97.10
3069;DHT22;1545;51.728;8.796;2024-03-02T00:27:07;6.60;97.30
3069;DHT22;1545;51.728;8.796;2024-03-02T00:29:33;6.50;97.40
3069;DHT22;1545;51.728;8.796;2024-03-02T00:32:01;6.50;97.70
3069;DHT22;1545;51.728;8.796;2024-03-02T00:34:26;6.50;97.50
3069;DHT22;1545;51.728;8.796;2024-03-02T00:36:52;6.50;97.60
3069;DHT22;1545;51.728;8.796;2024-03-02T00:39:17;6.50;97.80
3069;DHT22;1545;51.728;8.796;2024-03-02T00:41:43;6.40;97.80
3069;DHT22;1545;51.728;8.796;2024-03-02T00:44:12;6.50;97.80
3069;DHT22;1545;51.728;8.796;2024-03-02T00:46:42;6.50;97.80
3069;DHT22;1545;51.728;8.796;2024-03-02T00:49:24;6.50;98.00
3069;DHT22;1545;51.728;8.796;2024-03-02T00:51:53;6.50;97.80
3069;DHT22;1545;51.728;8.796;2024-03-02T00:54:24;6.50;97.80
3069;DHT22;1545;51.728;8.796;2024-03-02T00:56:51;6.50;97.60
3069;DHT22;1545;51.728;8.796;2024-03-02T00:59:17;6.50;97.80
3069;DHT22;1545;51.728;8.796;2024-03-02T01:01:43;6.40;98.20
3069;DHT22;1545;51.728;8.796;2024-03-02T01:04:09;6.40;98.40
3069;DHT22;1545;51.728;8.796;2024-03-02T01:06:35;6.40;98.30
3069;DHT22;1545;51.728;8.796;2024-03-02T01:09:01;6.40;98.10
3069;DHT22;1545;51.728;8.796;2024-03-02T01:11:27;6.40;98.30
3069;DHT22;1545;51.728;8.796;2024-03-02T01:13:53;6.30;98.50
3069;DHT22;1545;51.728;8.796;2024-03-02T01:16:18;6.30;98.80
3069;DHT22;1545;51.728;8.796;2024-03-02T01:18:44;6.30;98.60
3069;DHT22;1545;51.728;8.796;2024-03-02T01:21:09;6.30;98.70
3069;DHT22;1545;51.728;8.796;2024-03-02T01:23:35;6.20;98.80
3069;DHT22;1545;51.728;8.796;2024-03-02T01:26:00;6.30;98.80
3069;DHT22;1545;51.728;8.796;2024-03-02T01:28:26;6.20;98.60
3069;DHT22;1545;51.728;8.796;2024-03-02T01:30:51;6.20;98.80
3069;DHT22;1545;51.728;8.796;2024-03-02T01:33:19;6.20;98.70
3069;DHT22;1545;51.728;8.796;2024-03-02T01:35:45;6.30;98.70
3069;DHT22;1545;51.728;8.796;2024-03-02T01:38:11;6.20;98.40
3069;DHT22;1545;51.728;8.796;2024-03-02T01:40:37;6.10;98.80
3069;DHT22;1545;51.728;8.796;2024-03-02T01:43:07;6.00;98.80
3069;DHT22;1545;51.728;8.796;2024-03-02T01:45:33;6.00;98.80
3069;DHT22;1545;51.728;8.796;2024-03-02T01:48:00;6.00;98.80
3069;DHT22;1545;51.728;8.796;2024-03-02T01:50:31;6.00;98.80
3069;DHT22;1545;51.728;8.796;2024-03-02T01:52:58;5.90;98.80
3069;DHT22;1545;51.728;8.796;2024-03-02T01:55:24;5.90;98.80
3069;DHT22;1545;51.728;8.796;2024-03-02T01:57:50;5.80;98.80
3069;DHT22;1545;51.728;8.796;2024-03-02T02:00:20;5.80;98.80
3069;DHT22;1545;51.728;8.796;2024-03-02T02:02:46;5.80;98.80
3069;DHT22;1545;51.728;8.796;2024-03-02T02:05:13;5.80;98.80
3069;DHT22;1545;51.728;8.796;2024-03-02T02:07:40;5.80;98.80
3069;DHT22;1545;51.728;8.796;2024-03-02T02:10:06;5.80;98.80
3069;DHT22;1545;51.728;8.796;2024-03-02T02:12:32;5.80;98.80
3069;DHT22;1545;51.728;8.796;2024-03-02T02:14:57;5.80;98.80
3069;DHT22;1545;51.728;8.796;2024-03-02T02:17:23;5.80;98.80
3069;DHT22;1545;51.728;8.796;2024-03-02T02:19:48;5.90;98.80
3069;DHT22;1545;51.728;8.796;2024-03-02T02:22:14;6.00;98.80
3069;DHT22;1545;51.728;8.796;2024-03-02T02:24:40;6.10;98.80
3069;DHT22;1545;51.728;8.796;2024-03-02T02:27:07;6.00;98.80
3069;DHT22;1545;51.728;8.796;2024-03-02T02:29:32;5.90;98.80
3069;DHT22;1545;51.728;8.796;2024-03-02T02:31:58;6.00;98.80
3069;DHT22;1545;51.728;8.796;2024-03-02T02:34:23;5.80;98.80
3069;DHT22;1545;51.728;8.796;2024-03-02T02:36:49;5.80;98.80
3069;DHT22;1545;51.728;8.796;2024-03-02T02:39:16;5.80;98.80
3069;DHT22;1545;51.728;8.796;2024-03-02T02:41:43;5.80;98.80
3069;DHT22;1545;51.728;8.796;2024-03-02T02:44:09;5.70;98.80
3069;DHT22;1545;51.728;8.796;2024-03-02T02:46:38;5.80;98.80
3069;DHT22;1545;51.728;8.796;2024-03-02T02:49:03;5.80;98.80
3069;DHT22;1545;51.728;8.796;2024-03-02T02:51:29;5.90;98.80
3069;DHT22;1545;51.728;8.796;2024-03-02T02:53:54;5.90;98.80
3069;DHT22;1545;51.728;8.796;2024-03-02T02:56:20;6.00;98.80
3069;DHT22;1545;51.728;8.796;2024-03-02T02:58:45;6.00;98.80
3069;DHT22;1545;51.728;8.796;2024-03-02T03:01:11;6.10;98.80
3069;DHT22;1545;51.728;8.796;2024-03-02T03:03:36;6.10;98.80
3069;DHT22;1545;51.728;8.796;2024-03-02T03:06:02;6.10;98.80
3069;DHT22;1545;51.728;8.796;2024-03-02T03:08:27;6.10;98.80
3069;DHT22;1545;51.728;8.796;2024-03-02T03:10:53;6.00;98.80
3069;DHT22;1545;51.728;8.796;2024-03-02T03:13:18;6.00;98.80
3069;DHT22;1545;51.728;8.796;2024-03-02T03:15:44;6.00;98.80
3069;DHT22;1545;51.728;8.796;2024-03-02T03:18:09;6.00;98.80
3069;DHT22;1545;51.728;8.796;2024-03-02T03:20:35;6.00;98.80
3069;DHT22;1545;51.728;8.796;2024-03-02T03:23:01;6.00;98.80
3069;DHT22;1545;51.728;8.796;2024-03-02T03:25:26;6.00;98.80
3069;DHT22;1545;51.728;8.796;2024-03-02T03:27:52;6.00;98.80
3069;DHT22;1545;51.728;8.796;2024-03-02T03:30:18;6.00;98.80
3069;DHT22;1545;51.728;8.796;2024-03-02T03:32:43;6.00;98.80
3069;DHT22;1545;51.728;8.796;2024-03-02T03:35:09;6.10;98.80
3069;DHT22;1545;51.728;8.796;2024-03-02T03:37:34;6.00;98.80
3069;DHT22;1545;51.728;8.796;2024-03-02T03:40:00;6.10;98.80
3069;DHT22;1545;51.728;8.796;2024-03-02T03:42:26;6.10;98.80
3069;DHT22;1545;51.728;8.796;2024-03-02T03:44:52;6.00;98.80
3069;DHT22;1545;51.728;8.796;2024-03-02T03:47:17;6.10;98.80
3069;DHT22;1545;51.728;8.796;2024-03-02T03:49:43;6.00;98.80
3069;DHT22;1545;51.728;8.796;2024-03-02T03:52:08;6.00;98.80
3069;DHT22;1545;51.728;8.796;2024-03-02T03:54:34;6.00;98.80
3069;DHT22;1545;51.728;8.796;2024-03-02T03:56:59;5.90;98.80
3069;DHT22;1545;51.728;8.796;2024-03-02T03:59:24;5.90;98.80
3069;DHT22;1545;51.728;8.796;2024-03-02T04:01:50;5.90;98.80
3069;DHT22;1545;51.728;8.796;2024-03-02T04:04:15;5.90;98.80
3069;DHT22;1545;51.728;8.796;2024-03-02T04:06:41;5.90;98.80
3069;DHT22;1545;51.728;8.796;2024-03-02T04:09:06;5.90;98.80
3069;DHT22;1545;51.728;8.796;2024-03-02T04:11:32;5.80;98.80
3069;DHT22;1545;51.728;8.796;2024-03-02T04:13:58;5.80;98.80
3069;DHT22;1545;51.728;8.796;2024-03-02T04:16:23;5.80;98.80
3069;DHT22;1545;51.728;8.796;2024-03-02T04:18:49;5.80;98.80
3069;DHT22;1545;51.728;8.796;2024-03-02T04:21:14;5.80;98.80
3069;DHT22;1545;51.728;8.796;2024-03-02T04:23:40;5.80;98.80
3069;DHT22;1545;51.728;8.796;2024-03-02T04:26:05;5.80;98.80
3069;DHT22;1545;51.728;8.796;2024-03-02T04:28:30;5.80;98.80
3069;DHT22;1545;51.728;8.796;2024-03-02T04:30:56;5.80;98.80
3069;DHT22;1545;51.728;8.796;2024-03-02T04:33:21;5.80;98.80
3069;DHT22;1545;51.728;8.796;2024-03-02T04:35:47;5.80;98.80
3069;DHT22;1545;51.728;8.796;2024-03-02T04:38:12;5.80;98.80
3069;DHT22;1545;51.728;8.796;2024-03-02T04:40:38;5.90;98.80
3069;DHT22;1545;51.728;8.796;2024-03-02T04:43:03;5.90;98.80
3069;DHT22;1545;51.728;8.796;2024-03-02T04:45:29;5.80;98.80
3069;DHT22;1545;51.728;8.796;2024-03-02T04:47:54;5.80;98.80
3069;DHT22;1545;51.728;8.796;2024-03-02T04:50:20;5.80;98.80
3069;DHT22;1545;51.728;8.796;2024-03-02T04:52:45;5.80;98.80
3069;DHT22;1545;51.728;8.796;2024-03-02T04:55:11;5.70;98.80
3069;DHT22;1545;51.728;8.796;2024-03-02T04:57:55;5.70;98.80
3069;DHT22;1545;51.728;8.796;2024-03-02T05:00:21;5.70;98.80
3069;DHT22;1545;51.728;8.796;2024-03-02T05:02:47;5.70;98.80
3069;DHT22;1545;51.728;8.796;2024-03-02T05:05:12;5.70;98.80
3069;DHT22;1545;51.728;8.796;2024-03-02T05:07:38;5.60;98.80
3069;DHT22;1545;51.728;8.796;2024-03-02T05:10:03;5.70;98.80
3069;DHT22;1545;51.728;8.796;2024-03-02T05:12:29;5.70;98.80
3069;DHT22;1545;51.728;8.796;2024-03-02T05:15:14;5.80;98.80
3069;DHT22;1545;51.728;8.796;2024-03-02T05:17:41;5.80;98.80
3069;DHT22;1545;51.728;8.796;2024-03-02T05:20:10;5.80;98.80
3069;DHT22;1545;51.728;8.796;2024-03-02T05:22:36;5.80;98.80
3069;DHT22;1545;51.728;8.796;2024-03-02T05:25:02;5.90;98.80
3069;DHT22;1545;51.728;8.796;2024-03-02T05:27:28;5.90;98.80
3069;DHT22;1545;51.728;8.796;2024-03-02T05:29:54;5.90;98.80
3069;DHT22;1545;51.728;8.796;2024-03-02T05:32:19;5.90;98.80
3069;DHT22;1545;51.728;8.796;2024-03-02T05:34:44;5.90;98.80
3069;DHT22;1545;51.728;8.796;2024-03-02T05:37:10;5.90;98.80
3069;DHT22;1545;51.728;8.796;2024-03-02T05:39:36;5.90;98.80
3069;DHT22;1545;51.728;8.796;2024-03-02T05:42:01;5.80;98.80
3069;DHT22;1545;51.728;8.796;2024-03-02T05:44:27;5.80;98.80
3069;DHT22;1545;51.728;8.796;2024-03-02T05:46:52;5.80;98.80
3069;DHT22;1545;51.728;8.796;2024-03-02T05:49:18;5.90;98.80
3069;DHT22;1545;51.728;8.796;2024-03-02T05:51:43;5.80;98.80
3069;DHT22;1545;51.728;8.796;2024-03-02T05:54:08;5.80;98.80
3069;DHT22;1545;51.728;8.796;2024-03-02T05:56:35;5.80;98.80
3069;DHT22;1545;51.728;8.796;2024-03-02T05:59:00;5.80;98.80
3069;DHT22;1545;51.728;8.796;2024-03-02T06:01:41;5.80;98.80
3069;DHT22;1545;51.728;8.796;2024-03-02T06:04:07;5.80;98.80
3069;DHT22;1545;51.728;8.796;2024-03-02T06:06:33;5.70;98.80
3069;DHT22;1545;51.728;8.796;2024-03-02T06:09:02;5.80;98.80
3069;DHT22;1545;51.728;8.796;2024-03-02T06:11:35;5.70;98.80
3069;DHT22;1545;51.728;8.796;2024-03-02T06:14:02;5.70;98.80
3069;DHT22;1545;51.728;8.796;2024-03-02T06:16:27;5.70;98.80
3069;DHT22;1545;51.728;8.796;2024-03-02T06:18:53;5.70;98.80
3069;DHT22;1545;51.728;8.796;2024-03-02T06:21:19;5.70;98.80
3069;DHT22;1545;51.728;8.796;2024-03-02T06:23:45;5.70;98.80
3069;DHT22;1545;51.728;8.796;2024-03-02T06:26:10;5.70;98.80
3069;DHT22;1545;51.728;8.796;2024-03-02T06:28:36;5.70;98.80
3069;DHT22;1545;51.728;8.796;2024-03-02T06:31:04;5.70;98.80
3069;DHT22;1545;51.728;8.796;2024-03-02T06:33:30;5.70;98.80
3069;DHT22;1545;51.728;8.796;2024-03-02T06:35:55;5.70;98.80
3069;DHT22;1545;51.728;8.796;2024-03-02T06:38:21;5.80;98.80
3069;DHT22;1545;51.728;8.796;2024-03-02T06:40:46;5.80;98.80
3069;DHT22;1545;51.728;8.796;2024-03-02T06:43:11;5.90;98.80
3069;DHT22;1545;51.728;8.796;2024-03-02T06:45:37;5.90;98.80
3069;DHT22;1545;51.728;8.796;2024-03-02T06:48:03;6.00;98.80
3069;DHT22;1545;51.728;8.796;2024-03-02T06:50:28;6.10;98.80
3069;DHT22;1545;51.728;8.796;2024-03-02T06:52:54;6.10;98.80
3069;DHT22;1545;51.728;8.796;2024-03-02T06:55:21;6.20;98.80
3069;DHT22;1545;51.728;8.796;2024-03-02T06:57:47;6.30;98.80
3069;DHT22;1545;51.728;8.796;2024-03-02T07:00:13;6.40;98.80
3069;DHT22;1545;51.728;8.796;2024-03-02T07:02:39;6.50;98.80
3069;DHT22;1545;51.728;8.796;2024-03-02T07:05:06;6.50;98.80
3069;DHT22;1545;51.728;8.796;2024-03-02T07:07:33;6.50;98.80
3069;DHT22;1545;51.728;8.796;2024-03-02T07:10:00;6.60;98.80
3069;DHT22;1545;51.728;8.796;2024-03-02T07:12:25;6.60;98.80
3069;DHT22;1545;51.728;8.796;2024-03-02T07:14:51;6.70;98.80
3069;DHT22;1545;51.728;8.796;2024-03-02T07:17:22;6.70;98.80
3069;DHT22;1545;51.728;8.796;2024-03-02T07:19:47;6.80;98.80
3069;DHT22;1545;51.728;8.796;2024-03-02T07:22:13;6.80;98.60
3069;DHT22;1545;51.728;8.796;2024-03-02T07:24:42;6.80;98.60
3069;DHT22;1545;51.728;8.796;2024-03-02T07:27:12;6.90;98.40
3069;DHT22;1545;51.728;8.796;2024-03-02T07:29:38;6.90;98.40
3069;DHT22;1545;51.728;8.796;2024-03-02T07:32:04;6.90;98.20
3069;DHT22;1545;51.728;8.796;2024-03-02T07:34:30;6.90;98.00
3069;DHT22;1545;51.728;8.796;2024-03-02T07:36:56;6.90;98.00
3069;DHT22;1545;51.728;8.796;2024-03-02T07:39:22;6.90;98.10
3069;DHT22;1545;51.728;8.796;2024-03-02T07:41:48;6.90;98.10
3069;DHT22;1545;51.728;8.796;2024-03-02T07:44:13;6.90;98.10
3069;DHT22;1545;51.728;8.796;2024-03-02T07:46:41;6.90;98.00
3069;DHT22;1545;51.728;8.796;2024-03-02T07:49:06;6.90;97.90
3069;DHT22;1545;51.728;8.796;2024-03-02T07:51:32;7.00;97.70
3069;DHT22;1545;51.728;8.796;2024-03-02T07:53:57;7.00;97.50
3069;DHT22;1545;51.728;8.796;2024-03-02T07:56:23;7.00;97.50
3069;DHT22;1545;51.728;8.796;2024-03-02T07:58:48;7.10;97.40
3069;DHT22;1545;51.728;8.796;2024-03-02T08:01:14;7.10;97.40
3069;DHT22;1545;51.728;8.796;2024-03-02T08:03:40;7.10;97.30
3069;DHT22;1545;51.728;8.796;2024-03-02T08:06:06;7.20;97.10
3069;DHT22;1545;51.728;8.796;2024-03-02T08:08:32;7.20;97.00
3069;DHT22;1545;51.728;8.796;2024-03-02T08:10:57;7.20;97.10
3069;DHT22;1545;51.728;8.796;2024-03-02T08:13:23;7.20;96.90
3069;DHT22;1545;51.728;8.796;2024-03-02T08:15:48;7.30;96.90
3069;DHT22;1545;51.728;8.796;2024-03-02T08:18:14;7.30;96.80
3069;DHT22;1545;51.728;8.796;2024-03-02T08:20:40;7.30;96.70
3069;DHT22;1545;51.728;8.796;2024-03-02T08:23:06;7.30;96.70
3069;DHT22;1545;51.728;8.796;2024-03-02T08:25:31;7.40;96.50
3069;DHT22;1545;51.728;8.796;2024-03-02T08:27:57;7.40;96.40
3069;DHT22;1545;51.728;8.796;2024-03-02T08:30:23;7.40;96.30
3069;DHT22;1545;51.728;8.796;2024-03-02T08:32:48;7.50;96.30
3069;DHT22;1545;51.728;8.796;2024-03-02T08:35:14;7.50;96.20
3069;DHT22;1545;51.728;8.796;2024-03-02T08:37:41;7.60;96.30
3069;DHT22;1545;51.728;8.796;2024-03-02T08:40:08;7.80;96.10
3069;DHT22;1545;51.728;8.796;2024-03-02T08:42:33;7.90;95.30
3069;DHT22;1545;51.728;8.796;2024-03-02T08:44:59;8.00;95.20
3069;DHT22;1545;51.728;8.796;2024-03-02T08:47:26;8.20;94.70
3069;DHT22;1545;51.728;8.796;2024-03-02T08:49:52;8.30;94.30
3069;DHT22;1545;51.728;8.796;2024-03-02T08:52:17;8.40;93.80
3069;DHT22;1545;51.728;8.796;2024-03-02T08:54:43;8.50;93.10
3069;DHT22;1545;51.728;8.796;2024-03-02T08:57:08;8.70;92.80
3069;DHT22;1545;51.728;8.796;2024-03-02T08:59:34;8.70;92.40
3069;DHT22;1545;51.728;8.796;2024-03-02T09:01:59;8.80;92.20
3069;DHT22;1545;51.728;8.796;2024-03-02T09:04:25;9.00;92.10
3069;DHT22;1545;51.728;8.796;2024-03-02T09:06:50;9.00;91.60
3069;DHT22;1545;51.728;8.796;2024-03-02T09:09:16;9.10;91.60
3069;DHT22;1545;51.728;8.796;2024-03-02T09:11:41;9.20;90.70
3069;DHT22;1545;51.728;8.796;2024-03-02T09:14:07;9.20;90.30
3069;DHT22;1545;51.728;8.796;2024-03-02T09:16:32;9.20;90.00
3069;DHT22;1545;51.728;8.796;2024-03-02T09:18:58;9.20;89.90
3069;DHT22;1545;51.728;8.796;2024-03-02T09:21:23;9.20;89.90
3069;DHT22;1545;51.728;8.796;2024-03-02T09:23:50;9.30;89.70
3069;DHT22;1545;51.728;8.796;2024-03-02T09:26:16;9.30;89.80
3069;DHT22;1545;51.728;8.796;2024-03-02T09:28:45;9.30;89.60
3069;DHT22;1545;51.728;8.796;2024-03-02T09:31:10;9.40;89.80
3069;DHT22;1545;51.728;8.796;2024-03-02T09:33:37;9.60;89.10
3069;DHT22;1545;51.728;8.796;2024-03-02T09:36:04;9.60;88.90
3069;DHT22;1545;51.728;8.796;2024-03-02T09:38:32;9.70;88.70
3069;DHT22;1545;51.728;8.796;2024-03-02T09:40:59;9.70;88.40
3069;DHT22;1545;51.728;8.796;2024-03-02T09:43:25;9.70;88.30
3069;DHT22;1545;51.728;8.796;2024-03-02T09:45:50;9.80;88.20
3069;DHT22;1545;51.728;8.796;2024-03-02T09:48:16;9.80;88.00
3069;DHT22;1545;51.728;8.796;2024-03-02T09:50:44;9.90;88.00
3069;DHT22;1545;51.728;8.796;2024-03-02T09:53:10;10.00;87.60
3069;DHT22;1545;51.728;8.796;2024-03-02T09:55:37;10.10;87.10
3069;DHT22;1545;51.728;8.796;2024-03-02T09:58:03;10.10;86.80
3069;DHT22;1545;51.728;8.796;2024-03-02T10:00:28;10.20;86.30
3069;DHT22;1545;51.728;8.796;2024-03-02T10:02:54;10.20;86.00
3069;DHT22;1545;51.728;8.796;2024-03-02T10:05:26;10.20;85.90
3069;DHT22;1545;51.728;8.796;2024-03-02T10:08:02;10.20;86.20
3069;DHT22;1545;51.728;8.796;2024-03-02T10:10:38;10.30;85.90
3069;DHT22;1545;51.728;8.796;2024-03-02T10:13:09;10.40;85.60
3069;DHT22;1545;51.728;8.796;2024-03-02T10:15:35;10.40;85.30
3069;DHT22;1545;51.728;8.796;2024-03-02T10:18:03;10.50;85.20
3069;DHT22;1545;51.728;8.796;2024-03-02T10:20:28;10.50;85.30
3069;DHT22;1545;51.728;8.796;2024-03-02T10:25:39;10.70;84.60
3069;DHT22;1545;51.728;8.796;2024-03-02T10:28:05;10.80;84.30
3069;DHT22;1545;51.728;8.796;2024-03-02T10:30:31;10.80;84.60
3069;DHT22;1545;51.728;8.796;2024-03-02T10:32:57;10.90;84.60
3069;DHT22;1545;51.728;8.796;2024-03-02T10:35:23;11.00;84.00
3069;DHT22;1545;51.728;8.796;2024-03-02T10:37:49;11.00;84.00
3069;DHT22;1545;51.728;8.796;2024-03-02T10:40:15;11.10;83.90
3069;DHT22;1545;51.728;8.796;2024-03-02T10:42:42;11.10;83.40
3069;DHT22;1545;51.728;8.796;2024-03-02T10:45:09;11.20;83.60
3069;DHT22;1545;51.728;8.796;2024-03-02T10:47:37;11.30;83.30
3069;DHT22;1545;51.728;8.796;2024-03-02T10:50:04;11.40;83.00
3069;DHT22;1545;51.728;8.796;2024-03-02T10:52:34;11.50;82.70
3069;DHT22;1545;51.728;8.796;2024-03-02T10:55:00;11.60;82.50
3069;DHT22;1545;51.728;8.796;2024-03-02T10:57:26;11.60;82.10
3069;DHT22;1545;51.728;8.796;2024-03-02T10:59:53;11.60;82.20
3069;DHT22;1545;51.728;8.796;2024-03-02T11:02:22;11.70;82.10
3069;DHT22;1545;51.728;8.796;2024-03-02T11:04:49;11.70;82.00
3069;DHT22;1545;51.728;8.796;2024-03-02T11:07:18;11.80;81.60
3069;DHT22;1545;51.728;8.796;2024-03-02T11:10:02;11.80;81.40
3069;DHT22;1545;51.728;8.796;2024-03-02T11:12:38;11.90;81.50
3069;DHT22;1545;51.728;8.796;2024-03-02T11:15:10;12.00;81.40
3069;DHT22;1545;51.728;8.796;2024-03-02T11:17:39;12.10;81.20
3069;DHT22;1545;51.728;8.796;2024-03-02T11:20:07;12.10;81.30
3069;DHT22;1545;51.728;8.796;2024-03-02T11:22:35;12.10;81.20
3069;DHT22;1545;51.728;8.796;2024-03-02T11:25:00;12.10;81.30
3069;DHT22;1545;51.728;8.796;2024-03-02T11:33:02;12.30;80.40
3069;DHT22;1545;51.728;8.796;2024-03-02T11:35:38;12.40;80.10
3069;DHT22;1545;51.728;8.796;2024-03-02T11:38:03;12.50;80.30
3069;DHT22;1545;51.728;8.796;2024-03-02T11:40:30;12.60;80.40
3069;DHT22;1545;51.728;8.796;2024-03-02T11:42:57;12.50;79.70
3069;DHT22;1545;51.728;8.796;2024-03-02T11:45:25;12.60;79.80
3069;DHT22;1545;51.728;8.796;2024-03-02T11:47:53;12.70;79.80
3069;DHT22;1545;51.728;8.796;2024-03-02T11:50:34;12.80;79.90
3069;DHT22;1545;51.728;8.796;2024-03-02T11:53:00;13.00;78.90
3069;DHT22;1545;51.728;8.796;2024-03-02T11:55:26;12.90;78.40
3069;DHT22;1545;51.728;8.796;2024-03-02T11:57:52;12.90;78.80
3069;DHT22;1545;51.728;8.796;2024-03-02T12:00:19;12.90;79.10
3069;DHT22;1545;51.728;8.796;2024-03-02T12:02:46;12.90;79.20
3069;DHT22;1545;51.728;8.796;2024-03-02T12:05:15;13.00;78.60
3069;DHT22;1545;51.728;8.796;2024-03-02T12:07:42;13.10;78.20
3069;DHT22;1545;51.728;8.796;2024-03-02T12:10:08;13.30;78.20
3069;DHT22;1545;51.728;8.796;2024-03-02T12:12:34;13.50;78.10
3069;DHT22;1545;51.728;8.796;2024-03-02T12:14:59;13.60;77.30
3069;DHT22;1545;51.728;8.796;2024-03-02T12:17:26;13.80;77.30
3069;DHT22;1545;51.728;8.796;2024-03-02T12:19:51;13.70;76.90
3069;DHT22;1545;51.728;8.796;2024-03-02T12:22:18;13.70;77.10
3069;DHT22;1545;51.728;8.796;2024-03-02T12:24:44;13.60;77.00
3069;DHT22;1545;51.728;8.796;2024-03-02T12:27:15;13.70;77.10
3069;DHT22;1545;51.728;8.796;2024-03-02T12:29:40;13.70;76.70
3069;DHT22;1545;51.728;8.796;2024-03-02T12:32:06;13.70;76.60
3069;DHT22;1545;51.728;8.796;2024-03-02T12:34:32;13.70;76.70
3069;DHT22;1545;51.728;8.796;2024-03-02T12:36:58;13.60;76.80
3069;DHT22;1545;51.728;8.796;2024-03-02T12:39:23;13.50;77.60
3069;DHT22;1545;51.728;8.796;2024-03-02T12:41:50;13.60;77.70
3069;DHT22;1545;51.728;8.796;2024-03-02T12:44:18;13.80;76.90
3069;DHT22;1545;51.728;8.796;2024-03-02T12:46:44;14.10;76.70
3069;DHT22;1545;51.728;8.796;2024-03-02T12:49:15;14.20;75.80
3069;DHT22;1545;51.728;8.796;2024-03-02T12:51:43;14.20;74.90
3069;DHT22;1545;51.728;8.796;2024-03-02T12:54:12;14.30;74.60
3069;DHT22;1545;51.728;8.796;2024-03-02T12:56:38;14.30;75.10
3069;DHT22;1545;51.728;8.796;2024-03-02T12:59:06;14.30;74.90
3069;DHT22;1545;51.728;8.796;2024-03-02T13:01:31;14.20;74.80
3069;DHT22;1545;51.728;8.796;2024-03-02T13:03:58;14.10;75.30
3069;DHT22;1545;51.728;8.796;2024-03-02T13:06:25;14.20;75.00
3069;DHT22;1545;51.728;8.796;2024-03-02T13:08:53;14.10;74.90
3069;DHT22;1545;51.728;8.796;2024-03-02T13:11:20;14.00;75.20
3069;DHT22;1545;51.728;8.796;2024-03-02T13:13:46;14.00;75.30
3069;DHT22;1545;51.728;8.796;2024-03-02T13:16:12;13.90;75.80
3069;DHT22;1545;51.728;8.796;2024-03-02T13:18:41;14.00;75.70
3069;DHT22;1545;51.728;8.796;2024-03-02T13:21:07;14.00;75.60
3069;DHT22;1545;51.728;8.796;2024-03-02T13:23:33;14.00;75.50
3069;DHT22;1545;51.728;8.796;2024-03-02T13:25:59;14.00;75.70
3069;DHT22;1545;51.728;8.796;2024-03-02T13:28:25;14.00;75.60
3069;DHT22;1545;51.728;8.796;2024-03-02T13:30:50;14.00;76.10
3069;DHT22;1545;51.728;8.796;2024-03-02T13:33:16;14.10;75.50
3069;DHT22;1545;51.728;8.796;2024-03-02T13:35:48;14.00;75.50
3069;DHT22;1545;51.728;8.796;2024-03-02T13:38:13;14.00;75.30
3069;DHT22;1545;51.728;8.796;2024-03-02T13:40:38;13.90;75.40
3069;DHT22;1545;51.728;8.796;2024-03-02T13:43:04;13.90;75.10
3069;DHT22;1545;51.728;8.796;2024-03-02T13:45:30;13.90;75.40
3069;DHT22;1545;51.728;8.796;2024-03-02T13:47:55;13.90;75.30
3069;DHT22;1545;51.728;8.796;2024-03-02T13:50:21;13.90;75.00
3069;DHT22;1545;51.728;8.796;2024-03-02T13:52:46;13.80;75.40
3069;DHT22;1545;51.728;8.796;2024-03-02T13:55:12;13.90;75.40
3069;DHT22;1545;51.728;8.796;2024-03-02T13:57:37;14.00;74.80
3069;DHT22;1545;51.728;8.796;2024-03-02T14:00:03;13.90;74.90
3069;DHT22;1545;51.728;8.796;2024-03-02T14:02:35;13.90;75.50
3069;DHT22;1545;51.728;8.796;2024-03-02T14:05:01;14.00;74.90
3069;DHT22;1545;51.728;8.796;2024-03-02T14:07:26;14.10;74.80
3069;DHT22;1545;51.728;8.796;2024-03-02T14:09:52;14.10;74.60
3069;DHT22;1545;51.728;8.796;2024-03-02T14:12:17;14.20;75.10
3069;DHT22;1545;51.728;8.796;2024-03-02T14:14:43;14.30;74.40
3069;DHT22;1545;51.728;8.796;2024-03-02T14:17:08;14.30;74.20
3069;DHT22;1545;51.728;8.796;2024-03-02T14:19:39;14.40;74.30
3069;DHT22;1545;51.728;8.796;2024-03-02T14:22:05;14.40;73.30
3069;DHT22;1545;51.728;8.796;2024-03-02T14:24:30;14.40;73.00
3069;DHT22;1545;51.728;8.796;2024-03-02T14:26:56;14.40;72.70
3069;DHT22;1545;51.728;8.796;2024-03-02T14:29:27;14.40;73.10
3069;DHT22;1545;51.728;8.796;2024-03-02T14:31:52;14.30;73.00
3069;DHT22;1545;51.728;8.796;2024-03-02T14:34:18;14.20;73.80
3069;DHT22;1545;51.728;8.796;2024-03-02T14:36:43;14.20;74.60
3069;DHT22;1545;51.728;8.796;2024-03-02T14:39:10;14.20;74.90
3069;DHT22;1545;51.728;8.796;2024-03-02T14:41:36;14.20;75.10
3069;DHT22;1545;51.728;8.796;2024-03-02T14:44:02;14.20;75.80
3069;DHT22;1545;51.728;8.796;2024-03-02T14:46:27;14.20;75.50
3069;DHT22;1545;51.728;8.796;2024-03-02T14:48:53;14.30;75.40
3069;DHT22;1545;51.728;8.796;2024-03-02T14:51:18;14.40;74.20
3069;DHT22;1545;51.728;8.796;2024-03-02T14:53:44;14.20;74.90
3069;DHT22;1545;51.728;8.796;2024-03-02T14:56:09;14.10;75.10
3069;DHT22;1545;51.728;8.796;2024-03-02T14:58:35;14.00;75.20
3069;DHT22;1545;51.728;8.796;2024-03-02T15:01:03;14.00;75.50
3069;DHT22;1545;51.728;8.796;2024-03-02T15:03:29;14.00;76.20
3069;DHT22;1545;51.728;8.796;2024-03-02T15:05:54;14.00;76.10
3069;DHT22;1545;51.728;8.796;2024-03-02T15:08:19;14.20;76.00
3069;DHT22;1545;51.728;8.796;2024-03-02T15:10:45;14.20;75.60
3069;DHT22;1545;51.728;8.796;2024-03-02T15:13:11;14.30;75.80
3069;DHT22;1545;51.728;8.796;2024-03-02T15:15:36;14.30;75.60
3069;DHT22;1545;51.728;8.796;2024-03-02T15:18:02;14.40;74.70
3069;DHT22;1545;51.728;8.796;2024-03-02T15:20:29;14.30;73.80
3069;DHT22;1545;51.728;8.796;2024-03-02T15:22:54;14.30;73.50
3069;DHT22;1545;51.728;8.796;2024-03-02T15:25:20;14.30;73.70
3069;DHT22;1545;51.728;8.796;2024-03-02T15:27:45;14.40;73.60
3069;DHT22;1545;51.728;8.796;2024-03-02T15:30:11;14.20;72.90
3069;DHT22;1545;51.728;8.796;2024-03-02T15:32:36;14.10;74.00
3069;DHT22;1545;51.728;8.796;2024-03-02T15:35:04;14.00;74.10
3069;DHT22;1545;51.728;8.796;2024-03-02T15:37:30;13.90;73.80
3069;DHT22;1545;51.728;8.796;2024-03-02T15:39:56;13.80;73.60
3069;DHT22;1545;51.728;8.796;2024-03-02T15:42:21;13.80;74.40
3069;DHT22;1545;51.728;8.796;2024-03-02T15:44:49;13.70;74.90
3069;DHT22;1545;51.728;8.796;2024-03-02T15:47:14;13.60;74.70
3069;DHT22;1545;51.728;8.796;2024-03-02T15:49:40;13.50;75.00
3069;DHT22;1545;51.728;8.796;2024-03-02T15:52:05;13.50;75.00
3069;DHT22;1545;51.728;8.796;2024-03-02T15:54:31;13.40;74.50
3069;DHT22;1545;51.728;8.796;2024-03-02T15:56:57;13.30;74.60
3069;DHT22;1545;51.728;8.796;2024-03-02T15:59:22;13.20;75.10
3069;DHT22;1545;51.728;8.796;2024-03-02T16:01:48;13.00;75.50
3069;DHT22;1545;51.728;8.796;2024-03-02T16:04:13;12.90;75.40
3069;DHT22;1545;51.728;8.796;2024-03-02T16:06:39;12.80;75.60
3069;DHT22;1545;51.728;8.796;2024-03-02T16:09:04;12.80;76.00
3069;DHT22;1545;51.728;8.796;2024-03-02T16:11:30;12.70;76.30
3069;DHT22;1545;51.728;8.796;2024-03-02T16:13:56;12.60;76.60